Cossayuna Lake, New York
Current Conditions -  °F | °C
As of 3:53 PM on Thursday 27 Nov 2014 (Local Time) from KGFL Reporting Station
Overcast Overcast  
Wind Chill: 25°   Ceiling: 2500
Heat Index: 30°   Visibility: 10mi
Dew Point: 24°   Wind: 5mph
Humidity: 79%   Direction: 60°ENE
Pressure: 30.01"   Gusts: NA
Location:  43.176°N, 73.4081°W
Report Text: KGFL 272053Z AUTO 06004KT 10SM OVC025 M01/M04 A3001 RMK AO2 SLP171 T10111044 53003
Loading
Personal Weather Stations






























Interactive Weather Map New forecast layout! Learn more

10-Day Weather Forecast

Advertisements
Track Severe Weather on mobile